Time;durP1;ratioP1;P1;durP2;ratioP2;P2;SDS_P1;SDS_P2;PMS_P1;PMS_P2;Temp;Humidity;BMP_temperature;BMP_pressure;BME280_temperature;BME280_humidity;BME280_pressure;Samples;Min_cycle;Max_cycle;Signal;HPM_P1;HPM_P2
2024/01/09 00:03:24;;;;;;;9.05;7.75;;;;;;;;;;10032487;28;20038;-72
2024/01/09 00:08:16;;;;;;;10.57;7.40;;;;;;;;;;10035462;28;20133;-76
2024/01/09 00:13:08;;;;;;;13.85;7.90;;;;;;;;;;10026208;28;20042;-74
2024/01/09 00:18:00;;;;;;;14.43;8.70;;;;;;;;;;10027977;28;20045;-74
2024/01/09 00:22:52;;;;;;;11.07;8.45;;;;;;;;;;10027852;28;20050;-74
2024/01/09 00:27:44;;;;;;;10.10;7.47;;;;;;;;;;10026563;28;20129;-74
2024/01/09 00:32:37;;;;;;;12.80;7.25;;;;;;;;;;10026631;28;20062;-74
2024/01/09 00:37:29;;;;;;;10.82;7.88;;;;;;;;;;10027863;28;20103;-73
2024/01/09 00:42:20;;;;;;;10.93;7.22;;;;;;;;;;10038314;28;20088;-74
2024/01/09 00:47:12;;;;;;;11.95;7.32;;;;;;;;;;10027744;28;20041;-73
2024/01/09 00:52:05;;;;;;;14.25;5.90;;;;;;;;;;10037541;28;20069;-74
2024/01/09 00:56:56;;;;;;;7.80;5.00;;;;;;;;;;10043659;28;20054;-74
2024/01/09 01:01:51;;;;;;;11.15;7.03;;;;;;;;;;10032575;28;20473;-74
2024/01/09 01:06:44;;;;;;;13.85;6.00;;;;;;;;;;10031900;28;20041;-74
2024/01/09 01:11:36;;;;;;;6.57;4.65;;;;;;;;;;10041629;28;20046;-74
2024/01/09 01:16:29;;;;;;;11.32;4.85;;;;;;;;;;10032452;28;20459;-74
2024/01/09 01:21:21;;;;;;;9.07;5.68;;;;;;;;;;10041545;28;20422;-74
2024/01/09 01:26:13;;;;;;;5.38;4.47;;;;;;;;;;10031764;28;20050;-74
2024/01/09 01:31:05;;;;;;;7.90;5.82;;;;;;;;;;10032376;28;20145;-73
2024/01/09 01:35:57;;;;;;;5.72;4.55;;;;;;;;;;10030836;28;20092;-73
2024/01/09 01:40:49;;;;;;;8.32;4.88;;;;;;;;;;10032149;28;20041;-73
2024/01/09 01:45:41;;;;;;;12.65;4.95;;;;;;;;;;10031965;28;20096;-74
2024/01/09 01:50:33;;;;;;;9.55;6.32;;;;;;;;;;10031966;28;20913;-74
2024/01/09 01:55:26;;;;;;;5.47;4.15;;;;;;;;;;10036666;28;20091;-73
2024/01/09 02:00:18;;;;;;;7.20;5.03;;;;;;;;;;10031590;28;20107;-74
2024/01/09 02:05:13;;;;;;;7.45;5.10;;;;;;;;;;10044657;28;20057;-74
2024/01/09 02:10:06;;;;;;;6.15;5.55;;;;;;;;;;10029150;28;20041;-74
2024/01/09 02:14:58;;;;;;;9.20;6.30;;;;;;;;;;10030297;28;20050;-74
2024/01/09 02:19:51;;;;;;;5.70;4.95;;;;;;;;;;10029310;28;20046;-74
2024/01/09 02:24:43;;;;;;;7.30;5.15;;;;;;;;;;10029684;28;20045;-73
2024/01/09 02:29:35;;;;;;;11.57;6.55;;;;;;;;;;10029878;28;20120;-73
2024/01/09 02:34:28;;;;;;;6.40;4.90;;;;;;;;;;10027848;28;20408;-74
2024/01/09 02:39:20;;;;;;;7.85;5.00;;;;;;;;;;10028924;28;20060;-74
2024/01/09 02:44:12;;;;;;;6.32;5.50;;;;;;;;;;10029292;28;20530;-74
2024/01/09 02:49:04;;;;;;;5.90;5.10;;;;;;;;;;10028001;28;20058;-74
2024/01/09 02:53:56;;;;;;;14.68;5.70;;;;;;;;;;10029053;28;20183;-74
2024/01/09 02:58:48;;;;;;;6.50;5.05;;;;;;;;;;10028709;28;20042;-74
2024/01/09 03:03:39;;;;;;;6.97;5.03;;;;;;;;;;10028394;28;20034;-74
2024/01/09 03:08:31;;;;;;;25.10;7.07;;;;;;;;;;10027765;28;20041;-74
2024/01/09 03:13:23;;;;;;;7.55;5.70;;;;;;;;;;10029795;28;20088;-74
2024/01/09 03:18:15;;;;;;;7.90;4.85;;;;;;;;;;10027603;28;20077;-74
2024/01/09 03:23:07;;;;;;;8.85;5.72;;;;;;;;;;10029584;28;20057;-74
2024/01/09 03:27:59;;;;;;;6.15;4.72;;;;;;;;;;10027879;28;22019;-74
2024/01/09 03:32:51;;;;;;;8.77;5.53;;;;;;;;;;10042014;28;20468;-75
2024/01/09 03:37:43;;;;;;;9.32;5.82;;;;;;;;;;10029660;28;20425;-75
2024/01/09 03:42:36;;;;;;;7.97;5.72;;;;;;;;;;10026527;28;20145;-74
2024/01/09 03:47:28;;;;;;;10.18;5.65;;;;;;;;;;10027865;28;20033;-74
2024/01/09 03:52:20;;;;;;;9.05;4.90;;;;;;;;;;10026245;28;20132;-74
2024/01/09 03:57:12;;;;;;;6.75;5.25;;;;;;;;;;10028002;28;20077;-74
2024/01/09 04:02:05;;;;;;;6.63;5.90;;;;;;;;;;10026686;28;20077;-74
2024/01/09 04:06:57;;;;;;;11.30;5.78;;;;;;;;;;10041672;28;20821;-74
2024/01/09 04:11:49;;;;;;;9.80;7.00;;;;;;;;;;10027323;28;20132;-74
2024/01/09 04:16:47;;;;;;;7.10;6.13;;;;;;;;;;10025019;28;20046;-74
2024/01/09 04:21:39;;;;;;;7.95;6.22;;;;;;;;;;10026730;28;20037;-73
2024/01/09 04:26:31;;;;;;;6.85;6.05;;;;;;;;;;10042704;28;20041;-75
2024/01/09 04:31:26;;;;;;;11.73;6.75;;;;;;;;;;10035432;28;20228;-74
2024/01/09 04:36:18;;;;;;;12.88;6.18;;;;;;;;;;10034197;28;20128;-74
2024/01/09 04:41:15;;;;;;;7.60;6.30;;;;;;;;;;10033783;28;20046;-74
2024/01/09 04:46:07;;;;;;;7.90;6.30;;;;;;;;;;10034666;28;20537;-74
2024/01/09 04:50:59;;;;;;;12.35;7.55;;;;;;;;;;10033762;28;20042;-74
2024/01/09 04:55:51;;;;;;;7.10;6.40;;;;;;;;;;10037755;28;20050;-74
2024/01/09 05:00:43;;;;;;;9.85;7.03;;;;;;;;;;10033149;28;20465;-74
2024/01/09 05:05:35;;;;;;;7.53;6.55;;;;;;;;;;10033571;28;20152;-74
2024/01/09 05:10:30;;;;;;;8.13;6.60;;;;;;;;;;10032140;28;20136;-74
2024/01/09 05:15:22;;;;;;;7.63;6.88;;;;;;;;;;10041844;28;20092;-74
2024/01/09 05:20:14;;;;;;;11.23;8.52;;;;;;;;;;10032782;28;20122;-74
2024/01/09 05:25:09;;;;;;;12.32;9.77;;;;;;;;;;10032997;28;20077;-75
2024/01/09 05:30:01;;;;;;;24.17;13.88;;;;;;;;;;10030689;28;20045;-75
2024/01/09 05:34:53;;;;;;;19.15;11.32;;;;;;;;;;10069179;28;20041;-74
2024/01/09 05:39:46;;;;;;;27.50;16.83;;;;;;;;;;10069364;28;20132;-74
2024/01/09 05:44:38;;;;;;;36.40;21.95;;;;;;;;;;10068974;28;20144;-74
2024/01/09 05:49:30;;;;;;;14.82;11.55;;;;;;;;;;10068453;28;20068;-75
2024/01/09 05:54:22;;;;;;;14.20;8.63;;;;;;;;;;10068377;28;20067;-74
2024/01/09 05:59:15;;;;;;;11.30;8.43;;;;;;;;;;10045479;28;20066;-75
2024/01/09 06:04:06;;;;;;;18.60;13.55;;;;;;;;;;10029409;28;20465;-75
2024/01/09 06:08:58;;;;;;;17.23;14.80;;;;;;;;;;10031094;28;20125;-74
2024/01/09 06:13:51;;;;;;;14.65;11.00;;;;;;;;;;10031432;28;20048;-75
2024/01/09 06:18:43;;;;;;;14.88;12.35;;;;;;;;;;10037139;28;20046;-76
2024/01/09 06:23:35;;;;;;;11.80;10.32;;;;;;;;;;10030515;28;20129;-76
2024/01/09 06:28:26;;;;;;;13.63;11.63;;;;;;;;;;10030022;28;20042;-76
2024/01/09 06:33:18;;;;;;;29.35;26.60;;;;;;;;;;10030225;28;20807;-76
2024/01/09 06:38:10;;;;;;;19.88;12.32;;;;;;;;;;10030330;28;20091;-75
2024/01/09 06:43:03;;;;;;;21.85;18.38;;;;;;;;;;10028700;28;20084;-76
2024/01/09 06:47:55;;;;;;;11.23;9.93;;;;;;;;;;10029399;28;20053;-76
2024/01/09 06:52:46;;;;;;;25.27;13.75;;;;;;;;;;10029016;28;20076;-76
2024/01/09 06:57:38;;;;;;;11.93;9.18;;;;;;;;;;10029078;28;20050;-76
2024/01/09 07:02:30;;;;;;;26.88;23.15;;;;;;;;;;10028395;28;20050;-78
2024/01/09 07:07:22;;;;;;;11.10;8.80;;;;;;;;;;10032090;28;20057;-77
2024/01/09 07:12:25;;;;;;;14.50;11.45;;;;;;;;;;10031102;28;20049;-77
2024/01/09 07:17:17;;;;;;;22.77;16.42;;;;;;;;;;10032042;28;20045;-77
2024/01/09 07:22:09;;;;;;;12.23;9.60;;;;;;;;;;10035327;28;20151;-77
2024/01/09 07:27:02;;;;;;;16.50;12.73;;;;;;;;;;10028061;28;20049;-77
2024/01/09 07:31:54;;;;;;;12.23;11.02;;;;;;;;;;10026936;28;20053;-77
2024/01/09 07:36:46;;;;;;;15.70;14.18;;;;;;;;;;10030823;28;20085;-77
2024/01/09 07:41:37;;;;;;;20.95;16.02;;;;;;;;;;10027685;28;20072;-77
2024/01/09 07:46:30;;;;;;;15.02;12.00;;;;;;;;;;10026496;28;20156;-77
2024/01/09 07:51:22;;;;;;;18.42;11.45;;;;;;;;;;10028157;28;20048;-77
2024/01/09 07:56:16;;;;;;;12.38;9.50;;;;;;;;;;10026142;28;20096;-77
2024/01/09 08:01:08;;;;;;;12.30;9.82;;;;;;;;;;10026040;28;20049;-78
2024/01/09 08:06:00;;;;;;;15.25;10.70;;;;;;;;;;10026406;28;20052;-77
2024/01/09 08:10:52;;;;;;;15.32;9.80;;;;;;;;;;10027223;28;20037;-77
2024/01/09 08:15:44;;;;;;;26.35;14.02;;;;;;;;;;10026425;28;20038;-77
2024/01/09 08:20:37;;;;;;;12.07;10.35;;;;;;;;;;10026749;28;20056;-77
2024/01/09 08:25:29;;;;;;;22.50;14.20;;;;;;;;;;10026601;28;20042;-77
2024/01/09 08:30:21;;;;;;;10.25;8.65;;;;;;;;;;10026308;28;20049;-76
2024/01/09 08:35:13;;;;;;;9.77;8.02;;;;;;;;;;10025597;28;20056;-77
2024/01/09 08:40:06;;;;;;;11.55;8.55;;;;;;;;;;10026714;28;20084;-77
2024/01/09 08:44:58;;;;;;;11.88;8.10;;;;;;;;;;10025163;28;20046;-77
2024/01/09 08:49:51;;;;;;;9.27;7.97;;;;;;;;;;10026333;28;20381;-77
2024/01/09 08:54:43;;;;;;;12.52;8.93;;;;;;;;;;10025545;28;20108;-78
2024/01/09 08:59:35;;;;;;;11.07;8.45;;;;;;;;;;10026237;28;20058;-78
2024/01/09 09:04:26;;;;;;;9.65;7.90;;;;;;;;;;10025731;28;20040;-78
2024/01/09 09:09:18;;;;;;;12.95;8.40;;;;;;;;;;10035299;28;20077;-78
2024/01/09 09:14:10;;;;;;;8.23;6.55;;;;;;;;;;10069279;28;20045;-78
2024/01/09 09:19:02;;;;;;;21.48;9.27;;;;;;;;;;10068195;28;20053;-78
2024/01/09 09:23:54;;;;;;;9.45;7.82;;;;;;;;;;10069322;28;20125;-78
2024/01/09 09:28:47;;;;;;;13.93;8.38;;;;;;;;;;10069482;28;20129;-78
2024/01/09 09:33:57;;;;;;;11.75;9.30;;;;;;;;;;10068304;28;20077;-78
2024/01/09 09:38:52;;;;;;;15.10;8.82;;;;;;;;;;10038933;28;20145;-78
2024/01/09 09:43:50;;;;;;;12.52;7.78;;;;;;;;;;10030308;28;20124;-78
2024/01/09 09:48:42;;;;;;;11.98;9.32;;;;;;;;;;10030851;28;20190;-78
2024/01/09 09:53:36;;;;;;;9.60;7.85;;;;;;;;;;10031495;28;20084;-78
2024/01/09 09:58:29;;;;;;;10.93;7.47;;;;;;;;;;10031199;28;20042;-78
2024/01/09 10:03:22;;;;;;;12.05;6.75;;;;;;;;;;10030479;28;20058;-78
2024/01/09 10:08:14;;;;;;;17.38;6.88;;;;;;;;;;10028720;28;20038;-77
2024/01/09 10:13:07;;;;;;;8.55;6.93;;;;;;;;;;10028920;28;20096;-77
2024/01/09 10:17:59;;;;;;;17.13;7.78;;;;;;;;;;10030328;28;20120;-77
2024/01/09 10:22:52;;;;;;;11.00;7.35;;;;;;;;;;10028290;28;20054;-77
2024/01/09 10:27:44;;;;;;;8.82;6.80;;;;;;;;;;10029883;28;20030;-77
2024/01/09 10:32:38;;;;;;;8.20;6.68;;;;;;;;;;10028548;28;20358;-77
2024/01/09 10:37:36;;;;;;;13.93;7.30;;;;;;;;;;10030020;28;20038;-77
2024/01/09 10:42:30;;;;;;;10.27;6.55;;;;;;;;;;10028190;28;20053;-77
2024/01/09 10:47:23;;;;;;;9.32;7.03;;;;;;;;;;10029825;28;20487;-78
2024/01/09 10:52:16;;;;;;;7.65;6.30;;;;;;;;;;10044292;28;20336;-78
2024/01/09 10:57:16;;;;;;;11.20;8.63;;;;;;;;;;10028216;28;20392;-79
2024/01/09 11:02:21;;;;;;;10.25;8.13;;;;;;;;;;10027388;28;20046;-79
2024/01/09 11:07:15;;;;;;;8.52;5.97;;;;;;;;;;10029024;28;20099;-76
2024/01/09 11:12:07;;;;;;;8.65;7.07;;;;;;;;;;10028258;28;20519;-77
2024/01/09 11:16:59;;;;;;;11.50;7.25;;;;;;;;;;10026749;28;20326;-76
2024/01/09 11:21:52;;;;;;;13.25;8.68;;;;;;;;;;10026277;28;20042;-76
2024/01/09 11:26:45;;;;;;;14.10;8.20;;;;;;;;;;10027272;28;20045;-77
2024/01/09 11:31:38;;;;;;;12.80;7.70;;;;;;;;;;10027088;28;20054;-77
2024/01/09 11:36:34;;;;;;;14.00;7.47;;;;;;;;;;10025092;28;20042;-77
2024/01/09 11:41:32;;;;;;;13.68;7.43;;;;;;;;;;10026609;28;20046;-78
2024/01/09 11:46:24;;;;;;;14.48;7.40;;;;;;;;;;10044541;28;20069;-77
2024/01/09 11:51:17;;;;;;;9.73;7.28;;;;;;;;;;10026528;28;20046;-76
2024/01/09 11:56:13;;;;;;;15.07;7.47;;;;;;;;;;10026467;28;20349;-77
2024/01/09 12:01:06;;;;;;;15.65;9.32;;;;;;;;;;10026439;28;20431;-77
2024/01/09 12:05:58;;;;;;;13.68;7.68;;;;;;;;;;10030343;28;20424;-78
2024/01/09 12:10:50;;;;;;;11.15;6.95;;;;;;;;;;10027164;28;20041;-77
2024/01/09 12:15:42;;;;;;;14.85;7.68;;;;;;;;;;10026724;28;20056;-78
2024/01/09 12:20:38;;;;;;;11.38;7.80;;;;;;;;;;10026575;28;20357;-78
2024/01/09 12:25:31;;;;;;;10.35;7.25;;;;;;;;;;10025690;28;20085;-78
2024/01/09 12:30:23;;;;;;;11.10;8.48;;;;;;;;;;10026534;28;20038;-78
2024/01/09 12:35:15;;;;;;;10.80;7.45;;;;;;;;;;10025356;28;20548;-78
2024/01/09 12:40:09;;;;;;;11.48;8.05;;;;;;;;;;10008884;28;20081;-78
2024/01/09 12:45:02;;;;;;;9.43;7.15;;;;;;;;;;10028356;28;20115;-78
2024/01/09 12:49:54;;;;;;;11.60;7.90;;;;;;;;;;10033854;28;20046;-78
2024/01/09 12:54:55;;;;;;;13.73;8.07;;;;;;;;;;10032607;28;20107;-78
2024/01/09 12:59:49;;;;;;;15.38;7.75;;;;;;;;;;10033315;28;20060;-77
2024/01/09 13:04:41;;;;;;;10.23;8.25;;;;;;;;;;10032425;28;20056;-79
2024/01/09 13:09:33;;;;;;;8.23;7.43;;;;;;;;;;10032701;28;20041;-79
2024/01/09 13:14:26;;;;;;;16.13;8.48;;;;;;;;;;10033331;28;20430;-78
2024/01/09 13:19:19;;;;;;;9.88;7.55;;;;;;;;;;10031647;28;20350;-78
2024/01/09 13:24:12;;;;;;;11.70;8.38;;;;;;;;;;10032926;28;20041;-78
2024/01/09 13:29:04;;;;;;;14.05;8.57;;;;;;;;;;10032038;28;20136;-78
2024/01/09 13:34:16;;;;;;;12.25;8.85;;;;;;;;;;10031551;28;20559;-79
2024/01/09 13:39:14;;;;;;;9.32;7.10;;;;;;;;;;10032073;28;20679;-79
2024/01/09 13:44:06;;;;;;;12.77;8.02;;;;;;;;;;10031317;28;20381;-79
2024/01/09 13:48:57;;;;;;;9.52;6.07;;;;;;;;;;10031751;28;20034;-79
2024/01/09 13:53:52;;;;;;;11.25;8.45;;;;;;;;;;10030625;28;20046;-78
2024/01/09 13:58:44;;;;;;;13.38;7.35;;;;;;;;;;10030461;28;20049;-78
2024/01/09 14:03:36;;;;;;;10.23;7.53;;;;;;;;;;10030576;28;20045;-78
2024/01/09 14:08:28;;;;;;;11.05;7.18;;;;;;;;;;10030813;28;20125;-79
2024/01/09 14:13:20;;;;;;;12.75;7.53;;;;;;;;;;10030269;28;20535;-79
2024/01/09 14:18:12;;;;;;;11.77;9.15;;;;;;;;;;10030637;28;20090;-79
2024/01/09 14:23:04;;;;;;;13.85;8.18;;;;;;;;;;10028881;28;20049;-79
2024/01/09 14:27:56;;;;;;;11.02;8.32;;;;;;;;;;10029548;28;20045;-79
2024/01/09 14:32:49;;;;;;;11.48;7.03;;;;;;;;;;10029353;28;20058;-79
2024/01/09 14:37:42;;;;;;;12.80;7.93;;;;;;;;;;10029031;28;20128;-79
2024/01/09 14:42:34;;;;;;;18.80;7.57;;;;;;;;;;10029238;28;20052;-79
2024/01/09 14:47:26;;;;;;;11.77;7.60;;;;;;;;;;10028068;28;20089;-79
2024/01/09 14:52:18;;;;;;;12.45;8.75;;;;;;;;;;10029794;28;20076;-79
2024/01/09 14:57:09;;;;;;;11.13;8.48;;;;;;;;;;10029203;28;20124;-78
2024/01/09 15:02:02;;;;;;;9.95;7.85;;;;;;;;;;10028409;28;20057;-80
2024/01/09 15:06:54;;;;;;;12.43;8.07;;;;;;;;;;10028413;28;20042;-79
2024/01/09 15:11:52;;;;;;;18.03;8.03;;;;;;;;;;10027645;28;20042;-79
2024/01/09 15:16:44;;;;;;;13.55;8.30;;;;;;;;;;10028046;28;20073;-79
2024/01/09 15:21:37;;;;;;;9.80;6.65;;;;;;;;;;10027404;28;20052;-79
2024/01/09 15:26:29;;;;;;;12.63;8.35;;;;;;;;;;10027054;28;20046;-80
2024/01/09 15:31:21;;;;;;;10.23;8.10;;;;;;;;;;10026938;28;21542;-77
2024/01/09 15:36:13;;;;;;;12.85;7.60;;;;;;;;;;10025484;28;20104;-78
2024/01/09 15:41:09;;;;;;;7.63;6.00;;;;;;;;;;10027655;28;20050;-78
2024/01/09 15:46:02;;;;;;;14.30;7.45;;;;;;;;;;10035008;28;20507;-77
2024/01/09 15:50:55;;;;;;;15.90;11.30;;;;;;;;;;10026622;28;20069;-77
2024/01/09 15:55:47;;;;;;;12.88;8.48;;;;;;;;;;10026269;28;20037;-79
2024/01/09 16:00:40;;;;;;;24.08;13.63;;;;;;;;;;10027583;28;20092;-79
2024/01/09 16:05:33;;;;;;;27.25;17.10;;;;;;;;;;10026625;28;20064;-79
2024/01/09 16:10:29;;;;;;;24.83;22.35;;;;;;;;;;10026966;28;20088;-79
2024/01/09 16:15:22;;;;;;;24.10;21.75;;;;;;;;;;10026878;28;20091;-78
2024/01/09 16:20:14;;;;;;;58.63;36.25;;;;;;;;;;10030962;28;20042;-78
2024/01/09 16:25:10;;;;;;;37.83;27.30;;;;;;;;;;10033525;28;20434;-79
2024/01/09 16:30:06;;;;;;;20.60;13.63;;;;;;;;;;10032520;28;20368;-79
2024/01/09 16:34:58;;;;;;;15.43;10.98;;;;;;;;;;10034195;28;20052;-76
2024/01/09 16:39:50;;;;;;;20.35;11.95;;;;;;;;;;10035406;28;20042;-75
2024/01/09 16:44:42;;;;;;;60.05;38.33;;;;;;;;;;10059401;28;20096;-76
2024/01/09 16:49:34;;;;;;;17.17;15.45;;;;;;;;;;10037511;28;20533;-75
2024/01/09 16:54:26;;;;;;;22.75;12.07;;;;;;;;;;10034000;28;20069;-75
2024/01/09 16:59:18;;;;;;;17.98;10.82;;;;;;;;;;10033596;28;20041;-75
2024/01/09 17:04:10;;;;;;;14.80;10.23;;;;;;;;;;10033334;28;20400;-75
2024/01/09 17:09:02;;;;;;;10.82;8.50;;;;;;;;;;10035043;28;20057;-75
2024/01/09 17:13:54;;;;;;;12.90;9.88;;;;;;;;;;10033178;28;20057;-75
2024/01/09 17:18:46;;;;;;;13.50;9.10;;;;;;;;;;10041210;28;20054;-75
2024/01/09 17:23:38;;;;;;;33.88;27.77;;;;;;;;;;10065774;28;20045;-75
2024/01/09 17:28:31;;;;;;;54.10;38.63;;;;;;;;;;10063898;28;20041;-76
2024/01/09 17:33:23;;;;;;;51.88;37.20;;;;;;;;;;10063851;28;20068;-75
2024/01/09 17:38:16;;;;;;;27.67;19.80;;;;;;;;;;10066058;28;20056;-76
2024/01/09 17:43:09;;;;;;;81.55;48.00;;;;;;;;;;10068428;28;20052;-73
2024/01/09 17:48:01;;;;;;;28.60;19.83;;;;;;;;;;10064845;28;20165;-76
2024/01/09 17:52:53;;;;;;;21.75;14.88;;;;;;;;;;10040439;28;20057;-75
2024/01/09 17:57:45;;;;;;;20.98;15.82;;;;;;;;;;10029836;28;20152;-74
2024/01/09 18:02:39;;;;;;;18.13;13.60;;;;;;;;;;10037982;28;20042;-75
2024/01/09 18:07:31;;;;;;;41.47;26.45;;;;;;;;;;10037828;28;20477;-75
2024/01/09 18:12:23;;;;;;;15.70;12.98;;;;;;;;;;10032862;28;20056;-74
2024/01/09 18:17:15;;;;;;;16.98;13.48;;;;;;;;;;10031550;28;20079;-75
2024/01/09 18:22:07;;;;;;;21.85;15.52;;;;;;;;;;10039848;28;20140;-75
2024/01/09 18:27:00;;;;;;;21.58;12.80;;;;;;;;;;10038505;28;20112;-75
2024/01/09 18:31:56;;;;;;;15.27;10.13;;;;;;;;;;10037358;28;20053;-74
2024/01/09 18:36:49;;;;;;;35.72;30.23;;;;;;;;;;10040397;28;20054;-75
2024/01/09 18:41:41;;;;;;;19.33;16.98;;;;;;;;;;10031146;28;20054;-76
2024/01/09 18:46:33;;;;;;;14.93;10.95;;;;;;;;;;10041888;28;20046;-75
2024/01/09 18:51:25;;;;;;;14.98;11.50;;;;;;;;;;10028492;28;20449;-75
2024/01/09 18:56:17;;;;;;;17.48;11.60;;;;;;;;;;10030911;28;20045;-75
2024/01/09 19:01:09;;;;;;;13.77;10.60;;;;;;;;;;10038707;28;20049;-73
2024/01/09 19:06:03;;;;;;;19.15;11.85;;;;;;;;;;10035158;28;20473;-73
2024/01/09 19:10:55;;;;;;;23.45;16.55;;;;;;;;;;10025180;28;20468;-74
2024/01/09 19:15:46;;;;;;;14.52;11.65;;;;;;;;;;10033090;28;20041;-74
2024/01/09 19:20:38;;;;;;;14.05;10.98;;;;;;;;;;10031650;28;20448;-74
2024/01/09 19:25:31;;;;;;;14.38;10.23;;;;;;;;;;10047452;28;20042;-74
2024/01/09 19:30:24;;;;;;;22.63;14.57;;;;;;;;;;10024764;28;20141;-75
2024/01/09 19:35:16;;;;;;;19.85;15.20;;;;;;;;;;10039215;28;20150;-75
2024/01/09 19:40:08;;;;;;;16.58;13.60;;;;;;;;;;10026256;28;20053;-74
2024/01/09 19:45:00;;;;;;;13.52;9.65;;;;;;;;;;10030331;28;20050;-73
2024/01/09 19:49:52;;;;;;;19.92;10.38;;;;;;;;;;10025561;28;20038;-73
2024/01/09 19:54:45;;;;;;;17.83;10.43;;;;;;;;;;10025276;28;20380;-74
2024/01/09 19:59:37;;;;;;;18.38;10.00;;;;;;;;;;10025085;28;20527;-74
2024/01/09 20:04:34;;;;;;;11.60;8.77;;;;;;;;;;10026095;28;20049;-75
2024/01/09 20:09:27;;;;;;;18.17;14.43;;;;;;;;;;10025957;28;20042;-74
2024/01/09 20:14:19;;;;;;;56.65;31.02;;;;;;;;;;10028928;28;20050;-75
2024/01/09 20:19:11;;;;;;;16.05;12.13;;;;;;;;;;10041005;28;20100;-75
2024/01/09 20:24:04;;;;;;;24.67;17.55;;;;;;;;;;10029592;28;20056;-75
2024/01/09 20:28:59;;;;;;;21.95;14.57;;;;;;;;;;10028453;28;20046;-74
2024/01/09 20:33:51;;;;;;;20.60;13.65;;;;;;;;;;10027386;28;20054;-74
2024/01/09 20:38:43;;;;;;;14.25;12.77;;;;;;;;;;10026708;28;20054;-72
2024/01/09 20:43:36;;;;;;;19.98;10.23;;;;;;;;;;10025311;28;20429;-75
2024/01/09 20:48:28;;;;;;;15.73;9.52;;;;;;;;;;10032373;28;20126;-78
2024/01/09 20:53:20;;;;;;;15.23;12.80;;;;;;;;;;10051089;28;20120;-78
2024/01/09 20:58:12;;;;;;;12.13;9.30;;;;;;;;;;10054520;28;20038;-77
2024/01/09 21:03:05;;;;;;;18.35;10.30;;;;;;;;;;10055311;28;20052;-77
2024/01/09 21:07:57;;;;;;;12.25;8.95;;;;;;;;;;10063079;28;20119;-77
2024/01/09 21:12:49;;;;;;;15.88;9.93;;;;;;;;;;10059747;28;20045;-77
2024/01/09 21:17:41;;;;;;;13.55;9.95;;;;;;;;;;10057199;28;20041;-77
2024/01/09 21:22:33;;;;;;;14.10;9.27;;;;;;;;;;10070222;28;20080;-78
2024/01/09 21:27:25;;;;;;;16.48;9.00;;;;;;;;;;10063522;28;20077;-77
2024/01/09 21:32:17;;;;;;;15.52;10.52;;;;;;;;;;10062598;28;20448;-77
2024/01/09 21:37:09;;;;;;;14.32;8.63;;;;;;;;;;10057035;28;20041;-77
2024/01/09 21:42:01;;;;;;;14.00;10.68;;;;;;;;;;10080441;28;20049;-77
2024/01/09 21:46:53;;;;;;;14.77;9.95;;;;;;;;;;10063728;28;20038;-77
2024/01/09 21:51:46;;;;;;;13.27;9.68;;;;;;;;;;10065319;28;20107;-77
2024/01/09 21:56:37;;;;;;;13.02;9.73;;;;;;;;;;10059308;28;20432;-77
2024/01/09 22:01:30;;;;;;;13.13;10.07;;;;;;;;;;10063427;28;20445;-77
2024/01/09 22:06:22;;;;;;;17.83;10.70;;;;;;;;;;10063524;28;20050;-77
2024/01/09 22:11:14;;;;;;;17.15;9.90;;;;;;;;;;10062181;28;20038;-76
2024/01/09 22:16:06;;;;;;;15.95;12.02;;;;;;;;;;10062956;28;20049;-78
2024/01/09 22:20:58;;;;;;;15.40;10.48;;;;;;;;;;10064901;28;20127;-78
2024/01/09 22:25:50;;;;;;;14.98;11.35;;;;;;;;;;10061404;28;20159;-76
2024/01/09 22:30:42;;;;;;;13.55;10.35;;;;;;;;;;10063822;28;20085;-77
2024/01/09 22:35:34;;;;;;;21.27;14.13;;;;;;;;;;10059889;28;20103;-77
2024/01/09 22:40:26;;;;;;;18.58;13.40;;;;;;;;;;10063242;28;20099;-77
2024/01/09 22:45:18;;;;;;;21.52;13.55;;;;;;;;;;10063300;28;20047;-77
2024/01/09 22:50:10;;;;;;;24.85;15.57;;;;;;;;;;10061811;28;20195;-77
2024/01/09 22:55:03;;;;;;;16.77;13.23;;;;;;;;;;10062880;28;20033;-77
2024/01/09 22:59:55;;;;;;;17.88;13.10;;;;;;;;;;10062827;28;20050;-77
2024/01/09 23:04:47;;;;;;;17.48;12.25;;;;;;;;;;10063302;28;20432;-77
2024/01/09 23:09:39;;;;;;;16.95;11.93;;;;;;;;;;10060830;28;20080;-77
2024/01/09 23:14:31;;;;;;;19.15;12.55;;;;;;;;;;10062194;28;20045;-77
2024/01/09 23:19:23;;;;;;;18.65;11.02;;;;;;;;;;10062739;28;20052;-77
2024/01/09 23:24:15;;;;;;;15.85;11.45;;;;;;;;;;10053254;28;20045;-77
2024/01/09 23:29:07;;;;;;;29.10;12.35;;;;;;;;;;10055028;28;20484;-77
2024/01/09 23:33:59;;;;;;;15.38;11.10;;;;;;;;;;10050869;28;20139;-76
2024/01/09 23:38:51;;;;;;;15.65;10.80;;;;;;;;;;10054495;28;20037;-77
2024/01/09 23:43:43;;;;;;;17.65;10.88;;;;;;;;;;10053442;28;20115;-77
2024/01/09 23:48:35;;;;;;;14.20;9.85;;;;;;;;;;10052036;28;20134;-77
2024/01/09 23:53:27;;;;;;;16.55;12.52;;;;;;;;;;10053762;28;20057;-77
2024/01/09 23:58:19;;;;;;;13.32;11.57;;;;;;;;;;10054166;28;20045;-77
